Time;durP1;ratioP1;P1;durP2;ratioP2;P2;SDS_P1;SDS_P2;PMS_P1;PMS_P2;Temp;Humidity;BMP_temperature;BMP_pressure;BME280_temperature;BME280_humidity;BME280_pressure;Samples;Min_cycle;Max_cycle;Signal;HPM_P1;HPM_P2
2021/03/28 00:01:41;;;;;;;13.20;6.30;;;;;;;;;;5054255;28;20714;-72
2021/03/28 00:04:26;;;;;;;13.27;6.50;;;;;;;;;;5054101;28;20277;-73
2021/03/28 00:07:11;;;;;;;15.47;5.90;;;;;;;;;;5053561;28;20200;-72
2021/03/28 00:09:57;;;;;;;20.53;6.67;;;;;;;;;;5053922;28;20232;-73
2021/03/28 00:12:42;;;;;;;13.30;5.90;;;;;;;;;;5053743;28;20670;-73
2021/03/28 00:15:27;;;;;;;13.53;6.60;;;;;;;;;;5053893;28;20206;-73
2021/03/28 00:18:16;;;;;;;18.35;6.75;;;;;;;;;;5052735;28;20409;-72
2021/03/28 00:21:06;;;;;;;14.57;6.80;;;;;;;;;;5053700;28;20678;-73
2021/03/28 00:23:51;;;;;;;18.93;6.10;;;;;;;;;;5053735;28;20248;-72
2021/03/28 00:26:40;;;;;;;13.37;6.20;;;;;;;;;;5053213;28;20333;-72
2021/03/28 00:29:24;;;;;;;13.43;5.53;;;;;;;;;;5053358;28;20437;-72
2021/03/28 00:32:12;;;;;;;11.47;5.90;;;;;;;;;;5053854;28;20251;-72
2021/03/28 00:35:05;;;;;;;13.97;6.43;;;;;;;;;;5053584;28;20208;-72
2021/03/28 00:37:59;;;;;;;17.30;6.60;;;;;;;;;;5053054;28;20690;-72
2021/03/28 00:40:52;;;;;;;11.23;5.80;;;;;;;;;;5052620;28;20224;-72
2021/03/28 00:43:42;;;;;;;13.83;6.53;;;;;;;;;;5053431;28;20203;-72
2021/03/28 00:46:34;;;;;;;17.73;6.33;;;;;;;;;;5052861;28;20303;-72
2021/03/28 00:49:24;;;;;;;12.40;6.63;;;;;;;;;;5051727;28;20404;-72
2021/03/28 00:52:21;;;;;;;16.43;7.17;;;;;;;;;;5053246;28;20204;-72
2021/03/28 00:55:13;;;;;;;12.77;6.17;;;;;;;;;;5053651;28;20200;-72
2021/03/28 00:58:02;;;;;;;16.37;6.57;;;;;;;;;;5052677;28;20698;-72
2021/03/28 01:00:52;;;;;;;15.47;7.80;;;;;;;;;;5052883;28;20309;-72
2021/03/28 01:03:55;;;;;;;18.73;8.30;;;;;;;;;;5051773;28;20428;-72
2021/03/28 01:06:43;;;;;;;20.57;8.57;;;;;;;;;;5052494;28;20208;-72
2021/03/28 01:09:33;;;;;;;17.00;7.93;;;;;;;;;;5052810;28;20215;-72
2021/03/28 01:12:45;;;;;;;17.40;8.07;;;;;;;;;;5052762;28;20551;-72
2021/03/28 01:15:48;;;;;;;12.47;6.90;;;;;;;;;;5052929;28;20767;-72
2021/03/28 01:18:36;;;;;;;17.43;7.73;;;;;;;;;;5052166;28;20204;-72
2021/03/28 01:21:26;;;;;;;14.90;7.20;;;;;;;;;;5053029;28;20286;-72
2021/03/28 01:24:17;;;;;;;15.33;6.93;;;;;;;;;;5051731;28;20207;-72
2021/03/28 01:27:16;;;;;;;16.50;7.23;;;;;;;;;;5051847;28;20207;-72
2021/03/28 01:30:07;;;;;;;16.40;6.83;;;;;;;;;;5052309;28;20242;-72
2021/03/28 01:32:59;;;;;;;14.43;7.07;;;;;;;;;;5044143;28;20417;-72
2021/03/28 01:35:52;;;;;;;13.10;6.27;;;;;;;;;;5052150;28;20682;-72
2021/03/28 01:38:38;;;;;;;15.80;6.50;;;;;;;;;;5052093;28;20768;-72
2021/03/28 01:41:25;;;;;;;14.87;6.50;;;;;;;;;;5052029;28;20289;-72
2021/03/28 01:44:19;;;;;;;13.00;5.80;;;;;;;;;;5051775;28;20239;-72
2021/03/28 01:47:08;;;;;;;15.02;6.32;;;;;;;;;;5051054;28;20479;-72
2021/03/28 01:50:00;;;;;;;12.20;5.57;;;;;;;;;;5051450;28;20263;-72
2021/03/28 01:52:50;;;;;;;16.40;5.70;;;;;;;;;;5043665;28;20205;-72
2021/03/28 01:55:39;;;;;;;14.23;5.80;;;;;;;;;;5046068;28;20628;-72
2021/03/28 01:58:27;;;;;;;13.70;5.03;;;;;;;;;;5051779;28;20199;-72
2021/03/28 02:01:21;;;;;;;13.97;5.00;;;;;;;;;;5051507;28;20204;-72
2021/03/28 02:04:13;;;;;;;14.97;4.80;;;;;;;;;;5032145;28;20287;-72
2021/03/28 02:07:07;;;;;;;13.67;5.07;;;;;;;;;;5037660;28;20236;-72
2021/03/28 02:09:55;;;;;;;14.80;4.83;;;;;;;;;;5051524;28;20588;-72
2021/03/28 02:12:43;;;;;;;12.67;4.77;;;;;;;;;;5050887;28;20213;-72
2021/03/28 02:15:35;;;;;;;12.93;4.60;;;;;;;;;;5051755;28;20224;-72
2021/03/28 02:18:45;;;;;;;14.10;4.85;;;;;;;;;;5050666;28;20437;-72
2021/03/28 02:21:34;;;;;;;12.70;4.30;;;;;;;;;;5051123;28;20227;-72
2021/03/28 02:24:22;;;;;;;13.00;4.70;;;;;;;;;;5043492;28;20291;-72
2021/03/28 02:27:10;;;;;;;16.03;4.37;;;;;;;;;;5050655;28;20236;-72
2021/03/28 02:29:59;;;;;;;12.30;4.60;;;;;;;;;;5050977;28;20721;-72
2021/03/28 02:32:49;;;;;;;13.38;4.80;;;;;;;;;;5050063;28;20436;-72
2021/03/28 02:35:42;;;;;;;13.57;4.63;;;;;;;;;;5051048;28;20577;-72
2021/03/28 02:38:42;;;;;;;14.80;4.70;;;;;;;;;;5050871;28;20734;-72
2021/03/28 02:41:35;;;;;;;15.63;4.40;;;;;;;;;;5050868;28;20907;-72
2021/03/28 02:44:37;;;;;;;12.17;4.40;;;;;;;;;;5051133;28;20236;-72
2021/03/28 02:47:31;;;;;;;10.90;4.03;;;;;;;;;;5049980;28;20646;-71
2021/03/28 02:50:30;;;;;;;14.03;4.67;;;;;;;;;;5051016;28;20291;-72
2021/03/28 02:53:24;;;;;;;12.30;4.47;;;;;;;;;;5050681;28;20292;-72
2021/03/28 02:56:25;;;;;;;11.27;4.20;;;;;;;;;;5050059;28;20734;-72
2021/03/28 02:59:21;;;;;;;14.30;4.70;;;;;;;;;;5050658;28;20232;-72
2021/03/28 03:02:24;;;;;;;11.10;4.23;;;;;;;;;;5050567;28;20206;-72
2021/03/28 03:05:18;;;;;;;15.67;4.73;;;;;;;;;;5039147;28;20607;-71
2021/03/28 03:08:10;;;;;;;14.97;4.27;;;;;;;;;;5048853;28;20309;-72
2021/03/28 03:11:05;;;;;;;11.73;4.13;;;;;;;;;;5050410;28;20761;-72
2021/03/28 03:14:09;;;;;;;13.90;4.43;;;;;;;;;;5050562;28;20298;-72
2021/03/28 03:17:12;;;;;;;11.13;4.00;;;;;;;;;;5049726;28;20215;-72
2021/03/28 03:20:20;;;;;;;14.32;5.03;;;;;;;;;;5048770;28;20417;-72
2021/03/28 03:23:16;;;;;;;11.53;4.00;;;;;;;;;;5050740;28;20246;-72
2021/03/28 03:26:08;;;;;;;10.43;4.23;;;;;;;;;;5033808;28;20204;-72
2021/03/28 03:29:01;;;;;;;10.20;4.13;;;;;;;;;;5050651;28;20244;-71
2021/03/28 03:32:02;;;;;;;10.23;4.47;;;;;;;;;;5049513;28;20266;-71
2021/03/28 03:34:53;;;;;;;14.00;4.10;;;;;;;;;;5048105;28;20683;-72
2021/03/28 03:37:58;;;;;;;11.50;4.77;;;;;;;;;;5030167;28;20235;-72
2021/03/28 03:41:06;;;;;;;11.53;4.20;;;;;;;;;;5042636;28;20203;-71
2021/03/28 03:44:03;;;;;;;11.70;4.17;;;;;;;;;;5040051;28;20224;-71
2021/03/28 03:47:01;;;;;;;14.20;4.33;;;;;;;;;;5037859;28;20225;-71
2021/03/28 03:50:02;;;;;;;13.47;4.17;;;;;;;;;;5038678;28;20422;-71
2021/03/28 03:53:04;;;;;;;9.40;4.17;;;;;;;;;;5050611;28;20769;-71
2021/03/28 03:55:54;;;;;;;13.57;4.07;;;;;;;;;;5050195;28;20202;-71
2021/03/28 03:58:41;;;;;;;12.37;4.47;;;;;;;;;;5050498;28;20223;-71
2021/03/28 04:01:29;;;;;;;15.03;4.23;;;;;;;;;;5050425;28;20227;-71
2021/03/28 04:04:18;;;;;;;10.10;3.97;;;;;;;;;;5050273;28;20208;-71
2021/03/28 04:07:11;;;;;;;11.15;4.70;;;;;;;;;;5048108;28;20425;-71
2021/03/28 04:10:02;;;;;;;12.13;4.23;;;;;;;;;;5050009;28;20710;-71
2021/03/28 04:13:02;;;;;;;16.07;4.37;;;;;;;;;;5050000;28;20263;-71
2021/03/28 04:15:51;;;;;;;11.87;3.77;;;;;;;;;;5046989;28;20262;-71
2021/03/28 04:18:49;;;;;;;9.30;3.70;;;;;;;;;;5053618;28;20274;-71
2021/03/28 04:21:41;;;;;;;11.30;4.10;;;;;;;;;;5053520;28;20199;-71
2021/03/28 04:24:35;;;;;;;9.33;4.17;;;;;;;;;;5050056;28;20233;-71
2021/03/28 04:27:26;;;;;;;10.77;4.40;;;;;;;;;;5053298;28;20196;-71
2021/03/28 04:30:25;;;;;;;13.80;3.90;;;;;;;;;;5053262;28;20270;-71
2021/03/28 04:33:14;;;;;;;8.83;3.97;;;;;;;;;;5053684;28;20618;-71
2021/03/28 04:36:04;;;;;;;11.97;3.93;;;;;;;;;;5053049;28;20324;-71
2021/03/28 04:39:09;;;;;;;10.52;4.60;;;;;;;;;;5052311;28;20426;-71
2021/03/28 04:42:18;;;;;;;9.10;4.07;;;;;;;;;;5053515;28;20223;-71
2021/03/28 04:45:27;;;;;;;12.50;4.30;;;;;;;;;;5045779;28;20679;-71
2021/03/28 04:48:29;;;;;;;12.40;3.90;;;;;;;;;;5052784;28;20203;-71
2021/03/28 04:51:38;;;;;;;14.50;4.15;;;;;;;;;;5052888;28;20862;-71
2021/03/28 04:54:33;;;;;;;10.60;3.73;;;;;;;;;;5053246;28;20694;-71
2021/03/28 04:57:20;;;;;;;9.70;3.77;;;;;;;;;;5052871;28;20256;-71
2021/03/28 05:00:23;;;;;;;10.17;3.80;;;;;;;;;;5053239;28;20345;-71
2021/03/28 05:03:25;;;;;;;8.17;4.07;;;;;;;;;;5053270;28;20189;-71
2021/03/28 05:06:23;;;;;;;12.67;3.83;;;;;;;;;;5050114;28;20208;-71
2021/03/28 05:09:21;;;;;;;9.67;3.53;;;;;;;;;;5052926;28;20224;-71
2021/03/28 05:12:35;;;;;;;9.10;3.80;;;;;;;;;;5052833;28;20335;-71
2021/03/28 05:15:28;;;;;;;10.50;3.63;;;;;;;;;;5052840;28;20200;-71
2021/03/28 05:18:29;;;;;;;9.60;3.70;;;;;;;;;;5052472;28;20351;-71
2021/03/28 05:21:42;;;;;;;11.47;3.87;;;;;;;;;;5052839;28;20212;-71
2021/03/28 05:24:34;;;;;;;9.37;4.23;;;;;;;;;;5052072;28;20416;-71
2021/03/28 05:27:35;;;;;;;11.87;4.10;;;;;;;;;;5052040;28;20537;-71
2021/03/28 05:30:41;;;;;;;10.10;4.10;;;;;;;;;;5052495;28;20345;-71
2021/03/28 05:33:44;;;;;;;8.57;3.57;;;;;;;;;;5052246;28;20287;-71
2021/03/28 05:36:39;;;;;;;9.10;3.90;;;;;;;;;;5051962;28;20736;-72
2021/03/28 05:39:47;;;;;;;10.85;4.15;;;;;;;;;;5051117;28;20495;-71
2021/03/28 05:42:42;;;;;;;11.77;3.70;;;;;;;;;;5052285;28;20319;-71
2021/03/28 05:45:43;;;;;;;11.07;3.80;;;;;;;;;;5051903;28;20213;-71
2021/03/28 05:48:46;;;;;;;10.80;4.07;;;;;;;;;;5052551;28;20308;-71
2021/03/28 05:51:38;;;;;;;7.30;3.63;;;;;;;;;;5048611;28;20303;-71
2021/03/28 05:54:40;;;;;;;7.63;3.70;;;;;;;;;;5052271;28;20219;-71
2021/03/28 05:57:43;;;;;;;10.03;3.40;;;;;;;;;;5031828;28;20209;-72
2021/03/28 06:00:43;;;;;;;10.40;3.50;;;;;;;;;;5032330;28;20260;-71
2021/03/28 06:03:46;;;;;;;8.53;3.43;;;;;;;;;;5051389;28;20201;-71
2021/03/28 06:06:48;;;;;;;10.83;4.20;;;;;;;;;;5071504;28;20215;-72
2021/03/28 06:09:54;;;;;;;11.07;3.67;;;;;;;;;;5031597;28;20783;-72
2021/03/28 06:12:53;;;;;;;10.13;3.83;;;;;;;;;;5031656;28;20656;-70
2021/03/28 06:15:56;;;;;;;8.90;3.60;;;;;;;;;;5031879;28;20557;-72
2021/03/28 06:19:01;;;;;;;9.70;3.47;;;;;;;;;;5029911;28;20244;-71
2021/03/28 06:21:59;;;;;;;8.40;3.50;;;;;;;;;;5031793;28;20546;-72
2021/03/28 06:25:05;;;;;;;7.95;4.03;;;;;;;;;;5030832;28;20466;-72
2021/03/28 06:28:18;;;;;;;9.67;3.77;;;;;;;;;;5030884;28;20275;-71
2021/03/28 06:31:20;;;;;;;8.50;3.60;;;;;;;;;;5031013;28;20237;-71
2021/03/28 06:34:30;;;;;;;7.70;3.60;;;;;;;;;;5031456;28;20696;-71
2021/03/28 06:37:35;;;;;;;11.77;3.57;;;;;;;;;;5030619;28;20198;-72
2021/03/28 06:40:38;;;;;;;8.67;3.63;;;;;;;;;;5031422;28;20238;-72
2021/03/28 06:43:42;;;;;;;8.00;3.83;;;;;;;;;;5031148;28;20337;-72
2021/03/28 06:46:45;;;;;;;9.33;3.50;;;;;;;;;;5030855;28;20198;-72
2021/03/28 06:49:49;;;;;;;8.93;3.30;;;;;;;;;;5031079;28;20316;-72
2021/03/28 06:52:57;;;;;;;8.23;3.57;;;;;;;;;;5031171;28;20294;-72
2021/03/28 06:55:43;;;;;;;8.40;3.93;;;;;;;;;;5031315;28;20232;-72
2021/03/28 06:58:51;;;;;;;8.47;3.80;;;;;;;;;;5030904;28;20675;-72
2021/03/28 07:02:08;;;;;;;8.90;3.57;;;;;;;;;;5030911;28;20194;-72
2021/03/28 07:05:17;;;;;;;8.20;4.00;;;;;;;;;;5030662;28;20233;-72
2021/03/28 07:08:14;;;;;;;9.80;4.20;;;;;;;;;;5030226;28;20566;-71
2021/03/28 07:11:17;;;;;;;7.60;3.60;;;;;;;;;;5030702;28;20301;-72
2021/03/28 07:14:19;;;;;;;9.27;3.60;;;;;;;;;;5030599;28;20256;-72
2021/03/28 07:17:17;;;;;;;8.20;3.60;;;;;;;;;;5030449;28;20193;-71
2021/03/28 07:20:10;;;;;;;11.23;4.27;;;;;;;;;;5030438;28;20221;-71
2021/03/28 07:23:21;;;;;;;8.60;3.80;;;;;;;;;;5030900;28;20244;-71
2021/03/28 07:26:08;;;;;;;8.90;4.17;;;;;;;;;;5043681;28;20201;-70
2021/03/28 07:29:18;;;;;;;6.83;3.77;;;;;;;;;;5034026;28;20305;-70
2021/03/28 07:32:18;;;;;;;5.77;3.60;;;;;;;;;;5047768;28;20236;-70
2021/03/28 07:35:17;;;;;;;10.33;3.90;;;;;;;;;;5049410;28;20251;-69
2021/03/28 07:38:19;;;;;;;8.77;3.83;;;;;;;;;;5050039;28;20229;-69
2021/03/28 07:41:22;;;;;;;6.80;3.60;;;;;;;;;;5050306;28;20574;-70
2021/03/28 07:44:22;;;;;;;6.70;4.30;;;;;;;;;;5030652;28;20217;-68
2021/03/28 07:47:24;;;;;;;6.03;3.70;;;;;;;;;;5030175;28;20867;-68
2021/03/28 07:50:29;;;;;;;8.33;3.80;;;;;;;;;;5031315;28;20700;-68
2021/03/28 07:53:41;;;;;;;10.20;3.50;;;;;;;;;;5034359;28;20279;-68
2021/03/28 07:56:33;;;;;;;11.73;4.05;;;;;;;;;;5014420;28;20561;-68
2021/03/28 07:59:23;;;;;;;7.30;3.67;;;;;;;;;;5042545;28;20269;-67
2021/03/28 08:02:19;;;;;;;7.23;4.13;;;;;;;;;;5053407;28;20201;-67
2021/03/28 08:05:27;;;;;;;8.00;3.50;;;;;;;;;;5053936;28;20707;-67
2021/03/28 08:08:20;;;;;;;8.10;3.80;;;;;;;;;;5053237;28;20293;-69
2021/03/28 08:11:18;;;;;;;7.83;4.00;;;;;;;;;;5035573;28;20276;-68
2021/03/28 08:14:17;;;;;;;9.03;4.07;;;;;;;;;;5033826;28;20210;-69
2021/03/28 08:17:30;;;;;;;9.53;4.43;;;;;;;;;;5033281;28;20229;-70
2021/03/28 08:20:34;;;;;;;7.07;3.70;;;;;;;;;;5033815;28;20197;-69
2021/03/28 08:23:41;;;;;;;7.33;4.20;;;;;;;;;;5033857;28;20203;-69
2021/03/28 08:26:41;;;;;;;7.73;4.07;;;;;;;;;;5045111;28;20199;-68
2021/03/28 08:29:38;;;;;;;7.27;4.47;;;;;;;;;;5053709;28;20219;-68
2021/03/28 08:32:29;;;;;;;8.33;3.93;;;;;;;;;;5053117;28;20320;-68
2021/03/28 08:35:23;;;;;;;8.57;3.60;;;;;;;;;;5033749;28;20582;-68
2021/03/28 08:38:26;;;;;;;8.73;3.80;;;;;;;;;;5032795;28;20275;-68
2021/03/28 08:41:21;;;;;;;10.18;4.30;;;;;;;;;;5032963;28;20452;-71
2021/03/28 08:44:35;;;;;;;8.80;4.00;;;;;;;;;;5033265;28;20259;-69
2021/03/28 08:47:27;;;;;;;9.27;4.17;;;;;;;;;;5033807;28;20209;-69
2021/03/28 08:50:15;;;;;;;9.93;3.77;;;;;;;;;;5053090;28;20687;-68
2021/03/28 08:53:18;;;;;;;11.27;3.93;;;;;;;;;;5053049;28;20249;-69
2021/03/28 08:56:14;;;;;;;7.40;3.80;;;;;;;;;;5051229;28;20208;-70
2021/03/28 08:59:04;;;;;;;9.17;4.00;;;;;;;;;;5052056;28;20247;-70
2021/03/28 09:01:52;;;;;;;10.23;3.70;;;;;;;;;;5052611;28;20683;-69
2021/03/28 09:04:47;;;;;;;9.93;3.97;;;;;;;;;;5037607;28;20780;-69
2021/03/28 09:07:39;;;;;;;8.77;4.00;;;;;;;;;;5032276;28;20608;-69
2021/03/28 09:10:28;;;;;;;8.00;3.70;;;;;;;;;;5033252;28;20209;-70
2021/03/28 09:13:15;;;;;;;9.43;3.63;;;;;;;;;;5032812;28;20691;-70
2021/03/28 09:16:03;;;;;;;7.80;3.63;;;;;;;;;;5032355;28;20857;-69
2021/03/28 09:18:49;;;;;;;10.17;4.07;;;;;;;;;;5032495;28;20241;-70
2021/03/28 09:21:41;;;;;;;8.60;3.30;;;;;;;;;;5032779;28;20269;-69
2021/03/28 09:24:42;;;;;;;9.33;3.93;;;;;;;;;;5040851;28;20514;-68
2021/03/28 09:27:31;;;;;;;9.23;3.80;;;;;;;;;;5051566;28;20273;-68
2021/03/28 09:30:22;;;;;;;6.83;3.63;;;;;;;;;;5047564;28;20201;-69
2021/03/28 09:33:15;;;;;;;8.80;4.30;;;;;;;;;;5041871;28;20601;-70
2021/03/28 09:36:11;;;;;;;7.53;3.20;;;;;;;;;;5049585;28;20255;-70
2021/03/28 09:39:11;;;;;;;10.37;4.67;;;;;;;;;;5032218;28;20811;-69
2021/03/28 09:42:12;;;;;;;8.20;3.80;;;;;;;;;;5033080;28;20205;-68
2021/03/28 09:45:30;;;;;;;7.70;3.77;;;;;;;;;;5044463;28;20195;-70
2021/03/28 09:48:45;;;;;;;8.17;3.93;;;;;;;;;;5049629;28;20636;-68
2021/03/28 09:51:35;;;;;;;7.77;3.10;;;;;;;;;;5051418;28;20232;-68
2021/03/28 09:54:25;;;;;;;8.70;4.07;;;;;;;;;;5051479;28;20262;-68
2021/03/28 09:57:22;;;;;;;9.83;3.67;;;;;;;;;;5045739;28;20246;-70
2021/03/28 10:00:21;;;;;;;5.93;3.00;;;;;;;;;;5046262;28;20336;-70
2021/03/28 10:03:13;;;;;;;8.33;3.20;;;;;;;;;;5033173;28;20344;-70
2021/03/28 10:06:02;;;;;;;6.67;3.10;;;;;;;;;;5030389;28;20202;-69
2021/03/28 10:08:50;;;;;;;6.85;3.10;;;;;;;;;;5048670;28;20893;-68
2021/03/28 10:11:40;;;;;;;7.43;3.17;;;;;;;;;;5049174;28;20229;-69
2021/03/28 10:14:32;;;;;;;7.13;2.70;;;;;;;;;;5034819;28;20257;-69
2021/03/28 10:17:37;;;;;;;7.43;2.80;;;;;;;;;;5036225;28;20276;-68
2021/03/28 10:20:29;;;;;;;4.93;2.90;;;;;;;;;;5030974;28;20230;-69
2021/03/28 10:23:20;;;;;;;7.43;3.73;;;;;;;;;;5030991;28;20268;-69
2021/03/28 10:26:15;;;;;;;10.83;3.50;;;;;;;;;;5030516;28;20206;-70
2021/03/28 10:29:08;;;;;;;9.53;4.03;;;;;;;;;;5030726;28;20222;-69
2021/03/28 10:31:56;;;;;;;6.17;2.87;;;;;;;;;;5048891;28;20225;-70
2021/03/28 10:34:58;;;;;;;5.83;2.77;;;;;;;;;;5069883;28;20306;-69
2021/03/28 10:38:01;;;;;;;7.30;3.30;;;;;;;;;;5049864;28;20287;-68
2021/03/28 10:40:45;;;;;;;8.17;3.80;;;;;;;;;;5034888;28;21057;-70
2021/03/28 10:43:44;;;;;;;7.67;3.33;;;;;;;;;;5037959;28;20208;-69
2021/03/28 10:47:02;;;;;;;7.60;3.17;;;;;;;;;;5031090;28;20850;-69
2021/03/28 10:50:05;;;;;;;7.40;3.10;;;;;;;;;;5034520;28;20210;-69
2021/03/28 10:52:59;;;;;;;6.10;2.63;;;;;;;;;;5030174;28;20213;-69
2021/03/28 10:55:58;;;;;;;8.40;5.25;;;;;;;;;;5029387;28;20409;-69
2021/03/28 10:59:11;;;;;;;10.27;4.17;;;;;;;;;;5030275;28;20244;-69
2021/03/28 11:02:05;;;;;;;10.70;4.03;;;;;;;;;;5030331;28;20205;-72
2021/03/28 11:05:17;;;;;;;9.47;3.53;;;;;;;;;;5030276;28;20739;-69
2021/03/28 11:08:12;;;;;;;7.30;3.50;;;;;;;;;;5022763;28;20317;-70
2021/03/28 11:11:27;;;;;;;8.07;3.30;;;;;;;;;;5049714;28;20279;-69
2021/03/28 11:14:30;;;;;;;7.23;3.13;;;;;;;;;;5063308;22;20268;-66
2021/03/28 11:17:22;;;;;;;8.37;3.53;;;;;;;;;;5049733;28;20292;-65
2021/03/28 11:20:20;;;;;;;8.93;2.87;;;;;;;;;;5050326;28;20241;-66
2021/03/28 11:23:15;;;;;;;8.57;3.30;;;;;;;;;;5050214;28;20477;-67
2021/03/28 11:26:19;;;;;;;9.27;3.70;;;;;;;;;;5056530;28;20250;-65
2021/03/28 11:29:16;;;;;;;5.10;2.83;;;;;;;;;;5055701;28;20590;-64
2021/03/28 11:32:03;;;;;;;7.63;3.20;;;;;;;;;;5031996;28;20273;-65
2021/03/28 11:34:58;;;;;;;7.43;3.00;;;;;;;;;;5034703;28;20197;-65
2021/03/28 11:37:44;;;;;;;7.25;3.50;;;;;;;;;;5031261;28;20422;-66
2021/03/28 11:40:33;;;;;;;8.23;5.10;;;;;;;;;;5035538;28;20263;-65
2021/03/28 11:43:23;;;;;;;5.53;3.10;;;;;;;;;;5023755;28;20259;-66
2021/03/28 11:46:10;;;;;;;11.80;3.80;;;;;;;;;;5036233;28;20398;-66
2021/03/28 11:49:06;;;;;;;7.07;3.03;;;;;;;;;;5035488;28;20229;-65
2021/03/28 11:52:18;;;;;;;6.50;3.27;;;;;;;;;;5031970;28;20236;-66
2021/03/28 11:55:14;;;;;;;7.50;2.93;;;;;;;;;;5035563;28;20727;-65
2021/03/28 11:58:07;;;;;;;8.50;3.43;;;;;;;;;;5035234;28;20313;-65
2021/03/28 12:00:53;;;;;;;7.47;3.13;;;;;;;;;;5035793;28;20220;-64
2021/03/28 12:03:39;;;;;;;6.23;2.80;;;;;;;;;;5035651;28;20245;-68
2021/03/28 12:06:53;;;;;;;6.77;3.10;;;;;;;;;;5035269;28;20686;-68
2021/03/28 12:09:38;;;;;;;5.10;3.00;;;;;;;;;;5017119;28;20201;-69
2021/03/28 12:12:29;;;;;;;8.27;3.47;;;;;;;;;;5032119;28;20240;-69
2021/03/28 12:15:32;;;;;;;7.47;3.30;;;;;;;;;;5036367;28;20197;-67
2021/03/28 12:18:26;;;;;;;8.80;3.60;;;;;;;;;;5036504;28;20225;-69
2021/03/28 12:21:16;;;;;;;7.30;3.63;;;;;;;;;;5036525;28;20280;-68
2021/03/28 12:24:03;;;;;;;8.60;3.65;;;;;;;;;;5029387;28;20525;-66
2021/03/28 12:26:49;;;;;;;6.93;3.50;;;;;;;;;;5034064;28;20202;-66
2021/03/28 12:29:39;;;;;;;7.70;3.10;;;;;;;;;;5032729;28;20707;-66
2021/03/28 12:32:49;;;;;;;8.17;3.27;;;;;;;;;;5033392;28;20229;-66
2021/03/28 12:35:55;;;;;;;11.40;3.40;;;;;;;;;;5032949;28;20210;-66
2021/03/28 12:38:49;;;;;;;8.77;3.37;;;;;;;;;;5032436;28;20224;-68
2021/03/28 12:41:35;;;;;;;13.43;3.97;;;;;;;;;;5032658;28;20240;-68
2021/03/28 12:44:28;;;;;;;9.73;3.93;;;;;;;;;;5033410;28;20209;-67
2021/03/28 12:47:19;;;;;;;8.93;3.90;;;;;;;;;;5032097;28;20312;-67
2021/03/28 12:50:05;;;;;;;11.93;4.73;;;;;;;;;;5048830;28;20247;-68
2021/03/28 12:52:51;;;;;;;7.10;3.57;;;;;;;;;;5034823;28;20269;-68
2021/03/28 12:55:38;;;;;;;10.27;3.90;;;;;;;;;;5032756;28;20557;-67
2021/03/28 12:58:33;;;;;;;8.50;3.13;;;;;;;;;;5032755;28;20287;-67
2021/03/28 13:01:23;;;;;;;8.47;3.60;;;;;;;;;;5033135;28;20692;-67
2021/03/28 13:04:17;;;;;;;11.30;3.77;;;;;;;;;;5032814;28;20570;-67
2021/03/28 13:07:04;;;;;;;10.57;3.17;;;;;;;;;;5032547;28;20248;-67
2021/03/28 13:09:49;;;;;;;10.25;4.40;;;;;;;;;;5031903;28;20953;-67
2021/03/28 13:12:33;;;;;;;7.53;3.60;;;;;;;;;;5032181;28;20280;-67
2021/03/28 13:15:39;;;;;;;9.13;3.10;;;;;;;;;;5032802;28;20301;-67
2021/03/28 13:18:25;;;;;;;8.87;3.53;;;;;;;;;;5032514;28;20228;-67
2021/03/28 13:21:13;;;;;;;9.03;3.73;;;;;;;;;;5033137;28;20209;-67
2021/03/28 13:24:02;;;;;;;9.70;3.80;;;;;;;;;;5032420;28;20202;-67
2021/03/28 13:26:57;;;;;;;10.33;4.00;;;;;;;;;;5032157;28;20220;-68
2021/03/28 13:29:50;;;;;;;9.70;4.17;;;;;;;;;;5032607;28;20197;-66
2021/03/28 13:32:37;;;;;;;12.70;3.90;;;;;;;;;;5022899;28;20712;-67
2021/03/28 13:35:26;;;;;;;12.57;4.43;;;;;;;;;;5013377;28;20676;-67
2021/03/28 13:38:14;;;;;;;10.80;3.93;;;;;;;;;;5012070;28;20624;-66
2021/03/28 13:41:00;;;;;;;10.97;4.43;;;;;;;;;;5012911;28;20666;-67
2021/03/28 13:43:45;;;;;;;9.03;3.80;;;;;;;;;;5026972;28;20486;-68
2021/03/28 13:46:30;;;;;;;9.90;3.77;;;;;;;;;;5030702;28;20205;-68
2021/03/28 13:49:24;;;;;;;7.57;3.50;;;;;;;;;;5031334;28;20260;-67
2021/03/28 13:52:15;;;;;;;8.80;3.80;;;;;;;;;;5017084;28;20443;-67
2021/03/28 13:55:06;;;;;;;11.63;4.10;;;;;;;;;;5012269;28;20217;-68
2021/03/28 13:57:50;;;;;;;10.70;3.83;;;;;;;;;;5011834;28;20233;-69
2021/03/28 14:00:35;;;;;;;11.37;4.80;;;;;;;;;;5015450;28;20204;-68
2021/03/28 14:03:27;;;;;;;9.47;3.77;;;;;;;;;;5032080;28;20220;-68
2021/03/28 14:06:21;;;;;;;9.77;3.80;;;;;;;;;;5019607;28;20281;-67
2021/03/28 14:09:08;;;;;;;9.83;5.20;;;;;;;;;;5032075;28;20248;-67
2021/03/28 14:11:56;;;;;;;11.50;4.30;;;;;;;;;;5027294;28;20233;-69
2021/03/28 14:14:41;;;;;;;8.00;3.60;;;;;;;;;;5019434;28;20260;-68
2021/03/28 14:17:27;;;;;;;9.37;4.10;;;;;;;;;;5014907;28;20219;-67
2021/03/28 14:20:15;;;;;;;9.27;3.97;;;;;;;;;;5014607;28;20256;-66
2021/03/28 14:23:12;;;;;;;13.07;4.80;;;;;;;;;;5031677;28;20597;-68
2021/03/28 14:26:17;;;;;;;9.03;3.93;;;;;;;;;;5023337;28;20339;-69
2021/03/28 14:29:02;;;;;;;10.87;4.20;;;;;;;;;;5012134;28;20209;-68
2021/03/28 14:31:47;;;;;;;9.80;3.97;;;;;;;;;;5025723;28;20256;-69
2021/03/28 14:34:45;;;;;;;8.73;4.00;;;;;;;;;;5030368;28;20208;-69
2021/03/28 14:37:51;;;;;;;8.98;4.22;;;;;;;;;;5013314;28;20472;-69
2021/03/28 14:40:46;;;;;;;9.70;4.10;;;;;;;;;;5023409;28;20206;-67
2021/03/28 14:43:43;;;;;;;10.93;4.03;;;;;;;;;;5011690;28;20210;-67
2021/03/28 14:46:39;;;;;;;9.73;4.20;;;;;;;;;;5021346;28;20286;-67
2021/03/28 14:49:27;;;;;;;9.13;4.47;;;;;;;;;;5028239;28;20231;-68
2021/03/28 14:52:26;;;;;;;9.03;4.20;;;;;;;;;;5010950;28;20234;-67
2021/03/28 14:55:26;;;;;;;9.40;5.07;;;;;;;;;;5017814;28;20260;-68
2021/03/28 14:58:18;;;;;;;11.03;4.50;;;;;;;;;;5030209;28;20218;-67
2021/03/28 15:01:06;;;;;;;7.50;4.40;;;;;;;;;;5015345;28;20210;-67
2021/03/28 15:04:08;;;;;;;9.77;4.60;;;;;;;;;;5021277;28;20700;-67
2021/03/28 15:07:00;;;;;;;11.90;4.77;;;;;;;;;;5010367;28;20285;-67
2021/03/28 15:09:47;;;;;;;9.13;5.07;;;;;;;;;;5017284;28;20556;-67
2021/03/28 15:12:35;;;;;;;11.67;5.10;;;;;;;;;;5027803;28;20230;-66
2021/03/28 15:15:25;;;;;;;11.40;5.13;;;;;;;;;;5029378;28;20277;-67
2021/03/28 15:18:19;;;;;;;10.03;4.63;;;;;;;;;;5019848;28;20230;-67
2021/03/28 15:21:07;;;;;;;10.93;4.97;;;;;;;;;;5011100;28;20576;-67
2021/03/28 15:24:09;;;;;;;11.18;5.85;;;;;;;;;;5022675;28;20448;-67
2021/03/28 15:27:10;;;;;;;10.97;5.53;;;;;;;;;;5029610;28;20328;-66
2021/03/28 15:29:57;;;;;;;11.60;5.03;;;;;;;;;;5030458;28;20252;-67
2021/03/28 15:32:51;;;;;;;11.97;5.30;;;;;;;;;;5029876;28;20309;-67
2021/03/28 15:35:39;;;;;;;11.40;5.30;;;;;;;;;;5030617;28;20209;-67
2021/03/28 15:38:33;;;;;;;9.00;5.20;;;;;;;;;;5029632;28;20265;-67
2021/03/28 15:41:26;;;;;;;10.57;4.90;;;;;;;;;;5030442;28;20216;-67
2021/03/28 15:44:25;;;;;;;10.10;4.97;;;;;;;;;;5029593;28;20685;-66
2021/03/28 15:47:16;;;;;;;9.70;5.17;;;;;;;;;;5028790;28;20232;-68
2021/03/28 15:50:08;;;;;;;9.03;4.63;;;;;;;;;;5028924;28;20213;-65
2021/03/28 15:53:06;;;;;;;7.70;4.57;;;;;;;;;;5024735;28;20218;-66
2021/03/28 15:56:02;;;;;;;12.23;4.53;;;;;;;;;;5028139;28;20213;-66
2021/03/28 15:58:51;;;;;;;10.47;4.70;;;;;;;;;;5029132;28;20724;-66
2021/03/28 16:01:50;;;;;;;10.37;4.80;;;;;;;;;;5029243;28;20253;-67
2021/03/28 16:04:53;;;;;;;11.43;5.10;;;;;;;;;;5031057;28;20252;-67
2021/03/28 16:07:43;;;;;;;11.50;4.72;;;;;;;;;;5027561;28;20411;-68
2021/03/28 16:10:36;;;;;;;11.10;4.87;;;;;;;;;;5028987;28;20285;-68
2021/03/28 16:13:44;;;;;;;9.80;4.50;;;;;;;;;;5032322;28;20221;-67
2021/03/28 16:16:50;;;;;;;11.70;5.27;;;;;;;;;;5024432;28;20253;-67
2021/03/28 16:19:52;;;;;;;13.73;5.57;;;;;;;;;;5026252;28;20275;-67
2021/03/28 16:22:51;;;;;;;12.10;5.00;;;;;;;;;;5032588;28;20618;-67
2021/03/28 16:25:54;;;;;;;10.67;5.13;;;;;;;;;;5025629;28;20201;-68
2021/03/28 16:28:44;;;;;;;12.57;5.47;;;;;;;;;;5028398;28;20209;-68
2021/03/28 16:31:45;;;;;;;11.33;4.17;;;;;;;;;;5033737;28;20269;-67
2021/03/28 16:34:35;;;;;;;8.13;3.30;;;;;;;;;;5033296;28;20232;-67
2021/03/28 16:37:31;;;;;;;11.73;4.20;;;;;;;;;;5033010;28;20244;-67
2021/03/28 16:40:18;;;;;;;7.67;3.50;;;;;;;;;;5033265;28;20221;-66
2021/03/28 16:43:07;;;;;;;12.23;3.80;;;;;;;;;;5033096;28;20232;-67
2021/03/28 16:45:53;;;;;;;9.40;3.90;;;;;;;;;;5031799;28;20288;-66
2021/03/28 16:48:44;;;;;;;9.93;3.80;;;;;;;;;;5032340;28;20198;-68
2021/03/28 16:51:30;;;;;;;9.63;4.05;;;;;;;;;;5030068;28;20454;-67
2021/03/28 16:54:18;;;;;;;10.60;3.40;;;;;;;;;;5033544;28;20200;-67
2021/03/28 16:57:09;;;;;;;9.60;3.60;;;;;;;;;;5031799;28;20276;-66
2021/03/28 16:59:55;;;;;;;11.73;3.53;;;;;;;;;;5031930;28;20271;-67
2021/03/28 17:02:41;;;;;;;12.43;4.10;;;;;;;;;;5030121;28;20296;-67
2021/03/28 17:05:27;;;;;;;9.07;4.10;;;;;;;;;;5032912;28;20348;-67
2021/03/28 17:08:14;;;;;;;10.93;4.10;;;;;;;;;;5032621;28;20267;-66
2021/03/28 17:11:19;;;;;;;9.53;3.70;;;;;;;;;;5031010;28;20574;-66
2021/03/28 17:14:23;;;;;;;9.50;3.93;;;;;;;;;;5029765;28;20280;-66
2021/03/28 17:17:20;;;;;;;10.70;4.03;;;;;;;;;;5028394;28;20305;-66
2021/03/28 17:20:11;;;;;;;9.60;3.63;;;;;;;;;;5031610;28;20260;-67
2021/03/28 17:22:58;;;;;;;9.75;4.53;;;;;;;;;;5028291;28;20418;-66